Murphy's Hourly Summary for Tuesday, April 18, 2017
Hour Temp
(f)
RH
(%)
Solar Rad.
(MJ/m2)
Rainfall
(in)
Wind
(mph)
4/18/2017 12:00 AM 63 95 0 0 2.25
4/18/2017 1:00 AM 64 91 0 0 2.08
4/18/2017 2:00 AM 64 90 0 0 0.96
4/18/2017 3:00 AM 64 91 0 0 0
4/18/2017 4:00 AM 63 93 0 0 0
4/18/2017 5:00 AM 62 95 0 0 0.4
4/18/2017 6:00 AM 62 97 0 0 0.03
4/18/2017 7:00 AM 62 98 0 0.02 0.36
4/18/2017 8:00 AM 63 97 0.11 0 0.67
4/18/2017 9:00 AM 64 91 0.45 0 0.64
4/18/2017 10:00 AM 69 73 1.74 0 2.95
4/18/2017 11:00 AM 72 66 2.38 0 3.97
4/18/2017 12:00 PM 74 64 2.94 0 5.39
4/18/2017 1:00 PM 77 54 3.29 0 5.25
4/18/2017 2:00 PM 78 54 3.49 0 5.67
4/18/2017 3:00 PM 78 53 3.19 0 5.24
4/18/2017 4:00 PM 79 49 2.92 0 4.37
4/18/2017 5:00 PM 80 48 1.27 0 4.09
4/18/2017 6:00 PM 79 48 1.75 0 3.97
4/18/2017 7:00 PM 78 53 0.53 0 4.94
4/18/2017 8:00 PM 72 58 0.09 0 5.8
4/18/2017 9:00 PM 69 76 0 0 3.02
4/18/2017 10:00 PM 68 82 0 0 0.6
4/18/2017 11:00 PM 67 83 0 0 0.48
Data Summary 69 74 24.15 0.02 2.63